Map

Track Data

SID SEASON NUMBER BASIN SUBBASIN NAME ISO_TIME NATURE LAT LON WMO_WIND WMO_PRES WMO_AGENCY TRACK_TYPE DIST2LAND LANDFALL IFLAG USA_AGENCY USA_ATCF_ID USA_LAT USA_LON USA_RECORD USA_STATUS USA_WIND USA_PRES USA_SSHS USA_R34_NE USA_R34_SE USA_R34_SW USA_R34_NW USA_R50_NE USA_R50_SE USA_R50_SW USA_R50_NW USA_R64_NE USA_R64_SE USA_R64_SW USA_R64_NW USA_POCI USA_ROCI USA_RMW USA_EYE TOKYO_LAT TOKYO_LON TOKYO_GRADE TOKYO_WIND TOKYO_PRES TOKYO_R50_DIR TOKYO_R50_LONG TOKYO_R50_SHORT TOKYO_R30_DIR TOKYO_R30_LONG TOKYO_R30_SHORT TOKYO_LAND CMA_LAT CMA_LON CMA_CAT CMA_WIND CMA_PRES HKO_LAT HKO_LON HKO_CAT HKO_WIND HKO_PRES NEWDELHI_LAT NEWDELHI_LON NEWDELHI_GRADE NEWDELHI_WIND NEWDELHI_PRES NEWDELHI_CI NEWDELHI_DP NEWDELHI_POCI REUNION_LAT REUNION_LON REUNION_TYPE REUNION_WIND REUNION_PRES REUNION_TNUM REUNION_CI REUNION_RMW REUNION_R34_NE REUNION_R34_SE REUNION_R34_SW REUNION_R34_NW REUNION_R50_NE REUNION_R50_SE REUNION_R50_SW REUNION_R50_NW REUNION_R64_NE REUNION_R64_SE REUNION_R64_SW REUNION_R64_NW BOM_LAT BOM_LON BOM_TYPE BOM_WIND BOM_PRES BOM_TNUM BOM_CI BOM_RMW BOM_R34_NE BOM_R34_SE BOM_R34_SW BOM_R34_NW BOM_R50_NE BOM_R50_SE BOM_R50_SW BOM_R50_NW BOM_R64_NE BOM_R64_SE BOM_R64_SW BOM_R64_NW BOM_ROCI BOM_POCI BOM_EYE BOM_POS_METHOD BOM_PRES_METHOD NADI_LAT NADI_LON NADI_CAT NADI_WIND NADI_PRES WELLINGTON_LAT WELLINGTON_LON WELLINGTON_WIND WELLINGTON_PRES DS824_LAT DS824_LON DS824_STAGE DS824_WIND DS824_PRES TD9636_LAT TD9636_LON TD9636_STAGE TD9636_WIND TD9636_PRES TD9635_LAT TD9635_LON TD9635_WIND TD9635_PRES TD9635_ROCI NEUMANN_LAT NEUMANN_LON NEUMANN_CLASS NEUMANN_WIND NEUMANN_PRES MLC_LAT MLC_LON MLC_CLASS MLC_WIND MLC_PRES USA_GUST BOM_GUST BOM_GUST_PER REUNION_GUST REUNION_GUST_PER USA_SEAHGT USA_SEARAD_NE USA_SEARAD_SE USA_SEARAD_SW USA_SEARAD_NW STORM_SPEED STORM_DIR
1990289N22300 1990 107 NA NA NANA 1990-10-16 00:00:00 TS 22.2000 -60.4000 25 1009 hurdat_atl main 688 672 O_____________ hurdat_atl AL161990 22.2000 -60.4000 TD 25 1009 -1 4 288
1990289N22300 1990 107 NA NA NANA 1990-10-16 03:00:00 TS 22.2550 -60.5825 main 679 663 P_____________ AL161990 22.2550 -60.5825 TD 27 1008 -1 4 285
1990289N22300 1990 107 NA NA NANA 1990-10-16 06:00:00 TS 22.3000 -60.8000 30 1008 hurdat_atl main 663 640 O_____________ hurdat_atl AL161990 22.3000 -60.8000 TD 30 1008 -1 5 278
1990289N22300 1990 107 NA NA NANA 1990-10-16 09:00:00 TS 22.3225 -61.0774 main 640 617 P_____________ AL161990 22.3225 -61.0774 TD 30 1007 -1 6 270
1990289N22300 1990 107 NA NA NANA 1990-10-16 12:00:00 TS 22.3000 -61.4000 30 1006 hurdat_atl main 617 588 O_____________ hurdat_atl AL161990 22.3000 -61.4000 TD 30 1006 -1 6 259
1990289N22300 1990 107 NA NA NANA 1990-10-16 15:00:00 TS 22.2001 -61.7652 main 580 551 P_____________ AL161990 22.2001 -61.7652 TD 32 1005 -1 7 253
1990289N22300 1990 107 NA NA NANA 1990-10-16 18:00:00 TS 22.1000 -62.1000 35 1005 hurdat_atl main 551 538 O_____________ hurdat_atl AL161990 22.1000 -62.1000 TS 35 1005 0 5 258
1990289N22300 1990 107 NA NA NANA 1990-10-16 21:00:00 TS 22.0849 -62.3299 main 538 525 P_____________ AL161990 22.0849 -62.3299 TS 37 1004 0 4 270
1990289N22300 1990 107 NA NA NANA 1990-10-17 00:00:00 TS 22.1000 -62.5000 40 1004 hurdat_atl main 525 518 O_____________ hurdat_atl AL161990 22.1000 -62.5000 TS 40 1004 0 3 269
1990289N22300 1990 107 NA NA NANA 1990-10-17 03:00:00 TS 22.0774 -62.6501 main 512 506 P_____________ AL161990 22.0774 -62.6501 TS 42 1003 0 3 270
1990289N22300 1990 107 NA NA NANA 1990-10-17 06:00:00 TS 22.1000 -62.8000 45 1003 hurdat_atl main 506 500 O_____________ hurdat_atl AL161990 22.1000 -62.8000 TS 45 1003 0 4 294
1990289N22300 1990 107 NA NA NANA 1990-10-17 09:00:00 TS 22.2200 -62.9999 main 504 504 P_____________ AL161990 22.2200 -62.9999 TS 50 1001 0 5 309
1990289N22300 1990 107 NA NA NANA 1990-10-17 12:00:00 TS 22.4000 -63.2000 55 1000 hurdat_atl main 512 507 O_____________ hurdat_atl AL161990 22.4000 -63.2000 TS 55 1000 0 5 316
1990289N22300 1990 107 NA NA NANA 1990-10-17 15:00:00 TS 22.5775 -63.3725 main 522 522 P_____________ AL161990 22.5775 -63.3725 TS 60 997 0 5 325
1990289N22300 1990 107 NA NA NANA 1990-10-17 18:00:00 TS 22.8000 -63.5000 65 995 hurdat_atl main 538 538 O_____________ hurdat_atl AL161990 22.8000 -63.5000 HU 65 995 1 5 341
1990289N22300 1990 107 NA NA NANA 1990-10-17 21:00:00 TS 23.0775 -63.5576 main 565 565 P_____________ AL161990 23.0775 -63.5576 HU 67 992 1 6 352
1990289N22300 1990 107 NA NA NANA 1990-10-18 00:00:00 TS 23.4000 -63.6000 70 990 hurdat_atl main 596 596 O_____________ hurdat_atl AL161990 23.4000 -63.6000 HU 70 990 1 7 350
1990289N22300 1990 107 NA NA NANA 1990-10-18 03:00:00 TS 23.7275 -63.6777 main 624 624 P_____________ AL161990 23.7275 -63.6777 HU 72 990 1 7 345
1990289N22300 1990 107 NA NA NANA 1990-10-18 06:00:00 TS 24.1000 -63.8000 75 990 hurdat_atl main 664 664 O_____________ hurdat_atl AL161990 24.1000 -63.8000 HU 75 990 1 8 342
1990289N22300 1990 107 NA NA NANA 1990-10-18 09:00:00 TS 24.5199 -63.9628 main 701 701 P_____________ AL161990 24.5199 -63.9628 HU 75 992 1 10 338
1990289N22300 1990 107 NA NA NANA 1990-10-18 12:00:00 TS 25.0000 -64.2000 75 994 hurdat_atl main 751 751 O_____________ hurdat_atl AL161990 25.0000 -64.2000 HU 75 994 1 11 334
1990289N22300 1990 107 NA NA NANA 1990-10-18 15:00:00 TS 25.5425 -64.5200 main 801 801 P_____________ AL161990 25.5425 -64.5200 HU 72 994 1 13 330
1990289N22300 1990 107 NA NA NANA 1990-10-18 18:00:00 TS 26.1000 -64.9000 70 994 hurdat_atl main 863 863 O_____________ hurdat_atl AL161990 26.1000 -64.9000 HU 70 994 1 13 327
1990289N22300 1990 107 NA NA NANA 1990-10-18 21:00:00 TS 26.6226 -65.3075 main 912 912 P_____________ AL161990 26.6226 -65.3075 HU 67 993 1 12 324
1990289N22300 1990 107 NA NA NANA 1990-10-19 00:00:00 TS 27.1000 -65.7000 65 993 hurdat_atl main 945 945 O_____________ hurdat_atl AL161990 27.1000 -65.7000 HU 65 993 1 11 325
1990289N22300 1990 107 NA NA NANA 1990-10-19 03:00:00 TS 27.5298 -66.0154 main 972 972 P_____________ AL161990 27.5298 -66.0154 HU 67 992 1 10 326
1990289N22300 1990 107 NA NA NANA 1990-10-19 06:00:00 TS 27.9000 -66.3000 70 992 hurdat_atl main 1000 1000 O_____________ hurdat_atl AL161990 27.9000 -66.3000 HU 70 992 1 9 320
1990289N22300 1990 107 NA NA NANA 1990-10-19 09:00:00 TS 28.2301 -66.6747 main 1007 1007 P_____________ AL161990 28.2301 -66.6747 HU 72 990 1 8 319
1990289N22300 1990 107 NA NA NANA 1990-10-19 12:00:00 TS 28.5000 -66.9000 75 989 hurdat_atl main 1021 1021 O_____________ hurdat_atl AL161990 28.5000 -66.9000 HU 75 989 1 5 351
1990289N22300 1990 107 NA NA NANA 1990-10-19 15:00:00 TS 28.7225 -66.7680 main 1044 1044 P_____________ AL161990 28.7225 -66.7680 HU 72 990 1 5 41
1990289N22300 1990 107 NA NA NANA 1990-10-19 18:00:00 TS 28.9000 -66.5000 70 991 hurdat_atl main 1080 1080 O_____________ hurdat_atl AL161990 28.9000 -66.5000 HU 70 991 1 5 48
1990289N22300 1990 107 NA NA NANA 1990-10-19 21:00:00 TS 29.0574 -66.3499 main 1109 1109 P_____________ AL161990 29.0574 -66.3499 HU 65 994 1 4 41
1990289N22300 1990 107 NA NA NANA 1990-10-20 00:00:00 TS 29.2000 -66.2000 60 998 hurdat_atl main 1124 1124 O_____________ hurdat_atl AL161990 29.2000 -66.2000 TS 60 998 0 4 45
1990289N22300 1990 107 NA NA NANA 1990-10-20 03:00:00 TS 29.3650 -66.0001 main 1138 1138 P_____________ AL161990 29.3650 -66.0001 TS 55 999 0 5 49
1990289N22300 1990 107 NA NA NANA 1990-10-20 06:00:00 TS 29.5000 -65.8000 50 1000 hurdat_atl main 1145 1145 O_____________ hurdat_atl AL161990 29.5000 -65.8000 TS 50 1000 0 4 55
1990289N22300 1990 107 NA NA NANA 1990-10-20 09:00:00 TS 29.5950 -65.6275 main 1153 1153 P_____________ AL161990 29.5950 -65.6275 TS 45 1001 0 3 69
1990289N22300 1990 107 NA NA NANA 1990-10-20 12:00:00 TS 29.6000 -65.5000 40 1003 hurdat_atl main 1160 1160 O_____________ hurdat_atl AL161990 29.6000 -65.5000 TS 40 1003 0 2 127
1990289N22300 1990 107 NA NA NANA 1990-10-20 15:00:00 TS 29.4949 -65.4727 main 1168 1168 P_____________ AL161990 29.4949 -65.4727 TS 37 1004 0 3 164
1990289N22300 1990 107 NA NA NANA 1990-10-20 18:00:00 TS 29.3000 -65.4000 35 1005 hurdat_atl main 1179 1161 O_____________ hurdat_atl AL161990 29.3000 -65.4000 TS 35 1005 0 6 146
1990289N22300 1990 107 NA NA NANA 1990-10-20 21:00:00 TS 29.0277 -65.1144 main 1161 1150 P_____________ AL161990 29.0277 -65.1144 TS 32 1006 -1 7 134
1990289N22300 1990 107 NA NA NANA 1990-10-21 00:00:00 TS 28.8000 -64.8000 30 1008 hurdat_atl main 1154 1154 O_____________ hurdat_atl AL161990 28.8000 -64.8000 TD 30 1008 -1 5 111
1990289N22300 1990 107 NA NA NANA 1990-10-21 03:00:00 TS 28.8449 -64.5751 main 1163 1163 P_____________ AL161990 28.8449 -64.5751 TD 27 1009 -1 3 90
1990289N22300 1990 107 NA NA NANA 1990-10-21 06:00:00 TS 28.8000 -64.5000 25 1010 hurdat_atl main 1167 1122 O_____________ hurdat_atl AL161990 28.8000 -64.5000 TD 25 1010 -1 5 186
1990289N22300 1990 107 NA NA NANA 1990-10-21 09:00:00 TS 28.3727 -64.6385 main 1122 1040 P_____________ AL161990 28.3727 -64.6385 TD 22 1010 -1 12 198
1990289N22300 1990 107 NA NA NANA 1990-10-21 12:00:00 TS 27.7000 -64.9000 20 1010 hurdat_atl main 1040 O_____________ hurdat_atl AL161990 27.7000 -64.9000 TD 20 1010 -1 14 199

About IBTrACS Database

This database is a web-friendly format of International Best Track Archive for Climate Stewardship (IBTrACS), a global best track data archive curated by NOAA dating back to 1842.

Updated: 2021-10-21